Time,TemperatureF,DewpointF,PressureIn,WindDirection,WindDirectionDegrees,WindSpeedMPH,WindSpeedGustMPH,Humidity,HourlyPrecipIn,Conditions,Clouds,dailyrainin,SoftwareType,DateUTC
2013-05-09 00:02:00,61.9,55.0,30.08,SW,225,0.0,0.0,78,0.00,,,0.00,WUHU216HW,2013-05-09 04:02:00,
2013-05-09 00:07:00,61.7,54.8,30.08,SW,225,0.0,0.0,78,0.00,,,0.00,WUHU216HW,2013-05-09 04:07:00,
2013-05-09 00:12:00,61.6,55.0,30.08,SW,225,0.0,0.0,79,0.00,,,0.00,WUHU216HW,2013-05-09 04:12:00,
2013-05-09 00:17:00,61.6,55.0,30.09,SW,225,1.1,1.1,79,0.00,,,0.00,WUHU216HW,2013-05-09 04:17:00,
2013-05-09 00:22:00,61.4,55.5,30.09,SW,225,0.4,1.1,81,0.00,,,0.00,WUHU216HW,2013-05-09 04:22:00,
2013-05-09 00:27:00,61.0,55.2,30.09,SW,225,0.9,1.1,81,0.00,,,0.00,WUHU216HW,2013-05-09 04:27:00,
2013-05-09 00:32:00,60.8,55.4,30.09,SW,225,1.1,1.8,82,0.00,,,0.00,WUHU216HW,2013-05-09 04:32:00,
2013-05-09 00:37:00,60.8,55.4,30.08,WSW,248,0.7,1.8,82,0.00,,,0.00,WUHU216HW,2013-05-09 04:37:00,
2013-05-09 00:42:00,60.7,55.2,30.08,SW,225,0.9,1.1,82,0.00,,,0.00,WUHU216HW,2013-05-09 04:42:00,
2013-05-09 00:47:00,60.7,55.2,30.08,SW,225,1.8,1.8,82,0.00,,,0.00,WUHU216HW,2013-05-09 04:47:00,
2013-05-09 00:52:00,60.8,55.4,30.08,WSW,248,1.1,1.8,82,0.00,,,0.00,WUHU216HW,2013-05-09 04:52:00,
2013-05-09 00:57:00,60.8,55.4,30.08,WSW,248,1.1,1.1,82,0.00,,,0.00,WUHU216HW,2013-05-09 04:57:00,
2013-05-09 01:02:00,61.2,55.7,30.08,WSW,248,1.6,1.6,82,0.00,,,0.00,WUHU216HW,2013-05-09 05:02:00,
2013-05-09 01:07:00,61.2,55.4,30.08,SW,225,0.7,1.6,81,0.00,,,0.00,WUHU216HW,2013-05-09 05:07:00,
2013-05-09 01:12:00,61.2,55.4,30.08,SSW,203,1.1,1.6,81,0.00,,,0.00,WUHU216HW,2013-05-09 05:12:00,
2013-05-09 01:17:00,61.2,55.4,30.08,SSW,203,0.4,1.1,81,0.00,,,0.00,WUHU216HW,2013-05-09 05:17:00,
2013-05-09 01:22:00,61.2,55.7,30.08,SSW,203,0.7,1.1,82,0.00,,,0.00,WUHU216HW,2013-05-09 05:22:00,
2013-05-09 01:27:00,61.0,55.5,30.08,SSW,203,0.4,0.9,82,0.00,,,0.00,WUHU216HW,2013-05-09 05:27:00,
2013-05-09 01:32:00,61.0,55.5,30.08,SSW,203,0.9,1.1,82,0.00,,,0.00,WUHU216HW,2013-05-09 05:32:00,
2013-05-09 01:37:00,60.8,55.4,30.08,WSW,248,0.4,1.1,82,0.00,,,0.00,WUHU216HW,2013-05-09 05:37:00,
2013-05-09 01:42:00,61.0,55.5,30.07,WSW,248,0.4,1.1,82,0.00,,,0.00,WUHU216HW,2013-05-09 05:42:00,
2013-05-09 01:47:00,60.8,55.4,30.07,WSW,248,0.0,0.9,82,0.00,,,0.00,WUHU216HW,2013-05-09 05:47:00,
2013-05-09 01:52:00,60.8,55.4,30.07,WSW,248,0.0,0.2,82,0.00,,,0.00,WUHU216HW,2013-05-09 05:52:00,
2013-05-09 01:57:00,60.8,55.4,30.07,WSW,248,0.4,1.1,82,0.00,,,0.00,WUHU216HW,2013-05-09 05:57:00,
2013-05-09 02:02:00,60.8,55.4,30.07,WSW,248,0.0,1.1,82,0.00,,,0.00,WUHU216HW,2013-05-09 06:02:00,
2013-05-09 02:07:00,60.8,55.4,30.07,WSW,248,0.0,0.7,82,0.00,,,0.00,WUHU216HW,2013-05-09 06:07:00,
2013-05-09 02:12:00,60.7,55.5,30.07,WSW,248,0.0,0.0,83,0.00,,,0.00,WUHU216HW,2013-05-09 06:12:00,
2013-05-09 02:17:00,60.7,55.5,30.07,WSW,248,0.0,0.0,83,0.00,,,0.00,WUHU216HW,2013-05-09 06:17:00,
2013-05-09 02:22:00,60.5,55.4,30.07,SW,225,0.7,0.9,83,0.00,,,0.00,WUHU216HW,2013-05-09 06:22:00,
2013-05-09 02:27:00,60.5,55.6,30.07,SW,225,0.2,0.9,84,0.00,,,0.00,WUHU216HW,2013-05-09 06:27:00,
2013-05-09 02:32:00,60.5,55.4,30.06,SW,225,0.9,0.9,83,0.00,,,0.00,WUHU216HW,2013-05-09 06:32:00,
2013-05-09 02:37:00,60.5,55.6,30.06,SW,225,0.4,0.9,84,0.00,,,0.00,WUHU216HW,2013-05-09 06:37:00,
2013-05-09 02:42:00,60.5,55.6,30.06,SW,225,0.4,1.1,84,0.00,,,0.00,WUHU216HW,2013-05-09 06:42:00,
2013-05-09 02:47:00,60.5,55.6,30.06,SW,225,0.9,1.1,84,0.00,,,0.00,WUHU216HW,2013-05-09 06:47:00,
2013-05-09 02:52:00,60.5,56.0,30.06,SW,225,0.7,1.1,85,0.00,,,0.00,WUHU216HW,2013-05-09 06:52:00,
2013-05-09 02:57:00,60.5,56.0,30.06,WSW,248,0.9,1.1,85,0.00,,,0.00,WUHU216HW,2013-05-09 06:57:00,
2013-05-09 03:02:00,60.5,56.0,30.06,WSW,248,0.4,1.1,85,0.00,,,0.00,WUHU216HW,2013-05-09 07:02:00,
2013-05-09 03:07:00,60.5,56.0,30.06,WSW,248,0.4,1.1,85,0.00,,,0.00,WUHU216HW,2013-05-09 07:07:00,
2013-05-09 03:12:00,60.5,56.0,30.06,WSW,248,0.0,1.1,85,0.00,,,0.00,WUHU216HW,2013-05-09 07:12:00,
2013-05-09 03:17:00,60.5,56.0,30.06,WSW,248,0.0,0.7,85,0.00,,,0.00,WUHU216HW,2013-05-09 07:17:00,
2013-05-09 03:22:00,60.5,56.0,30.06,WSW,248,0.0,0.0,85,0.00,,,0.00,WUHU216HW,2013-05-09 07:22:00,
2013-05-09 03:27:00,60.3,55.8,30.06,WSW,248,0.0,0.4,85,0.00,,,0.00,WUHU216HW,2013-05-09 07:27:00,
2013-05-09 03:32:00,60.3,55.8,30.05,WSW,248,0.4,0.4,85,0.00,,,0.00,WUHU216HW,2013-05-09 07:32:00,
2013-05-09 03:37:00,60.5,56.4,30.06,WSW,248,0.4,0.7,86,0.00,,,0.00,WUHU216HW,2013-05-09 07:37:00,
2013-05-09 03:42:00,60.3,56.2,30.06,WSW,248,1.1,1.1,86,0.00,,,0.00,WUHU216HW,2013-05-09 07:42:00,
2013-05-09 03:47:00,60.5,56.4,30.06,WSW,248,0.9,1.1,86,0.00,,,0.00,WUHU216HW,2013-05-09 07:47:00,
2013-05-09 03:52:00,60.3,56.2,30.06,WSW,248,0.9,1.1,86,0.00,,,0.00,WUHU216HW,2013-05-09 07:52:00,
2013-05-09 03:57:00,60.3,56.2,30.06,WSW,248,0.7,1.1,86,0.00,,,0.00,WUHU216HW,2013-05-09 07:57:00,
2013-05-09 04:02:00,60.5,56.4,30.05,WSW,248,0.7,1.1,86,0.00,,,0.00,WUHU216HW,2013-05-09 08:02:00,
2013-05-09 04:07:00,60.5,56.6,30.05,WSW,248,1.1,1.1,87,0.00,,,0.00,WUHU216HW,2013-05-09 08:07:00,
2013-05-09 04:12:00,60.5,56.6,30.05,SW,225,1.1,1.8,87,0.00,,,0.00,WUHU216HW,2013-05-09 08:12:00,
2013-05-09 04:17:00,60.7,57.2,30.05,SW,225,0.9,1.8,88,0.00,,,0.00,WUHU216HW,2013-05-09 08:17:00,
2013-05-09 04:22:00,60.7,57.2,30.05,SW,225,0.0,0.9,88,0.00,,,0.00,WUHU216HW,2013-05-09 08:22:00,
2013-05-09 04:27:00,60.5,57.0,30.06,SW,225,0.0,0.7,88,0.00,,,0.00,WUHU216HW,2013-05-09 08:27:00,
2013-05-09 04:32:00,60.5,57.0,30.06,WSW,248,0.0,0.4,88,0.00,,,0.00,WUHU216HW,2013-05-09 08:32:00,
2013-05-09 04:37:00,60.5,57.0,30.06,SW,225,0.4,0.7,88,0.00,,,0.00,WUHU216HW,2013-05-09 08:37:00,
2013-05-09 04:42:00,60.3,57.1,30.06,SW,225,0.0,0.7,89,0.00,,,0.00,WUHU216HW,2013-05-09 08:42:00,
2013-05-09 04:47:00,60.3,56.8,30.06,SW,225,0.0,0.0,88,0.00,,,0.00,WUHU216HW,2013-05-09 08:47:00,
2013-05-09 04:52:00,60.3,56.8,30.06,SW,225,0.0,0.0,88,0.00,,,0.00,WUHU216HW,2013-05-09 08:52:00,
2013-05-09 04:57:00,60.3,56.8,30.06,SW,225,0.0,0.0,88,0.00,,,0.00,WUHU216HW,2013-05-09 08:57:00,
2013-05-09 05:02:00,60.3,56.8,30.06,SW,225,0.0,0.0,88,0.00,,,0.00,WUHU216HW,2013-05-09 09:02:00,
2013-05-09 05:07:00,60.3,56.8,30.06,SW,225,0.0,0.0,88,0.00,,,0.00,WUHU216HW,2013-05-09 09:07:00,
2013-05-09 05:12:00,60.3,56.8,30.06,SW,225,0.0,0.0,88,0.00,,,0.00,WUHU216HW,2013-05-09 09:12:00,
2013-05-09 05:17:00,60.1,56.6,30.06,SW,225,0.0,0.0,88,0.00,,,0.00,WUHU216HW,2013-05-09 09:17:00,
2013-05-09 05:22:00,60.1,56.6,30.06,SW,225,0.0,0.0,88,0.00,,,0.00,WUHU216HW,2013-05-09 09:22:00,
2013-05-09 05:27:00,60.1,56.3,30.06,SW,225,0.0,0.0,87,0.00,,,0.00,WUHU216HW,2013-05-09 09:27:00,
2013-05-09 05:32:00,59.9,56.4,30.06,SW,225,0.0,0.0,88,0.00,,,0.00,WUHU216HW,2013-05-09 09:32:00,
2013-05-09 05:37:00,59.9,56.4,30.06,SW,225,0.0,0.0,88,0.00,,,0.00,WUHU216HW,2013-05-09 09:37:00,
2013-05-09 05:42:00,59.9,56.4,30.06,SW,225,0.0,0.0,88,0.00,,,0.00,WUHU216HW,2013-05-09 09:42:00,
2013-05-09 05:47:00,59.8,56.3,30.06,SW,225,0.0,0.0,88,0.00,,,0.00,WUHU216HW,2013-05-09 09:47:00,
2013-05-09 05:52:00,59.8,56.3,30.06,SW,225,0.0,0.0,88,0.00,,,0.00,WUHU216HW,2013-05-09 09:52:00,
2013-05-09 05:57:00,59.8,56.3,30.06,SW,225,0.0,0.0,88,0.00,,,0.00,WUHU216HW,2013-05-09 09:57:00,
2013-05-09 06:02:00,59.8,56.3,30.06,SW,225,0.0,0.0,88,0.00,,,0.00,WUHU216HW,2013-05-09 10:02:00,
2013-05-09 06:07:00,59.8,56.3,30.07,WSW,248,0.0,0.0,88,0.00,,,0.00,WUHU216HW,2013-05-09 10:07:00,
2013-05-09 06:12:00,59.8,56.3,30.07,WSW,248,0.0,0.0,88,0.00,,,0.00,WUHU216HW,2013-05-09 10:12:00,
2013-05-09 06:17:00,59.6,56.3,30.07,WSW,248,0.0,0.0,89,0.00,,,0.00,WUHU216HW,2013-05-09 10:17:00,
2013-05-09 06:22:00,59.6,56.3,30.07,WSW,248,0.0,0.0,89,0.00,,,0.00,WUHU216HW,2013-05-09 10:22:00,
2013-05-09 06:27:00,59.8,56.5,30.08,ESE,113,0.0,0.0,89,0.00,,,0.00,WUHU216HW,2013-05-09 10:27:00,
2013-05-09 06:32:00,59.8,56.5,30.08,ESE,113,0.0,0.0,89,0.00,,,0.00,WUHU216HW,2013-05-09 10:32:00,
2013-05-09 06:37:00,59.8,56.5,30.08,ESE,113,0.0,0.0,89,0.00,,,0.00,WUHU216HW,2013-05-09 10:37:00,
2013-05-09 06:42:00,59.8,56.5,30.08,ESE,113,0.0,0.0,89,0.00,,,0.00,WUHU216HW,2013-05-09 10:42:00,
2013-05-09 06:47:00,59.8,56.5,30.08,ESE,113,0.0,0.0,89,0.00,,,0.00,WUHU216HW,2013-05-09 10:47:00,
2013-05-09 06:52:00,59.8,56.5,30.09,WSW,248,0.4,0.4,89,0.00,,,0.00,WUHU216HW,2013-05-09 10:52:00,
2013-05-09 06:57:00,59.9,56.7,30.09,WSW,248,0.0,0.4,89,0.00,,,0.00,WUHU216HW,2013-05-09 10:57:00,
2013-05-09 07:02:00,60.1,56.9,30.10,WSW,248,0.0,0.4,89,0.00,,,0.00,WUHU216HW,2013-05-09 11:02:00,
2013-05-09 07:07:00,60.1,56.9,30.10,West,270,0.0,0.2,89,0.00,,,0.00,WUHU216HW,2013-05-09 11:07:00,
2013-05-09 07:12:00,60.1,57.2,30.10,West,270,0.0,0.4,90,0.00,,,0.00,WUHU216HW,2013-05-09 11:12:00,
2013-05-09 07:17:00,60.3,57.4,30.10,West,270,0.4,1.1,90,0.00,,,0.00,WUHU216HW,2013-05-09 11:17:00,
2013-05-09 07:22:00,60.5,57.6,30.11,WSW,248,0.9,1.1,90,0.00,,,0.00,WUHU216HW,2013-05-09 11:22:00,
2013-05-09 07:27:00,60.8,58.0,30.11,West,270,0.9,1.3,90,0.00,,,0.00,WUHU216HW,2013-05-09 11:27:00,
2013-05-09 07:32:00,61.0,58.1,30.11,WSW,248,1.6,1.6,90,0.00,,,0.00,WUHU216HW,2013-05-09 11:32:00,
2013-05-09 07:37:00,61.2,58.3,30.11,West,270,0.4,1.6,90,0.00,,,0.00,WUHU216HW,2013-05-09 11:37:00,
2013-05-09 07:42:00,61.4,58.5,30.11,West,270,0.4,1.6,90,0.00,,,0.00,WUHU216HW,2013-05-09 11:42:00,
2013-05-09 07:47:00,61.6,59.0,30.11,West,270,0.4,1.6,91,0.00,,,0.00,WUHU216HW,2013-05-09 11:47:00,
2013-05-09 07:52:00,61.9,59.3,30.11,WSW,248,1.1,1.8,91,0.00,,,0.00,WUHU216HW,2013-05-09 11:52:00,
2013-05-09 07:57:00,62.1,59.5,30.11,West,270,0.4,1.8,91,0.00,,,0.00,WUHU216HW,2013-05-09 11:57:00,
2013-05-09 08:02:00,62.3,59.7,30.11,WSW,248,0.0,1.6,91,0.00,,,0.00,WUHU216HW,2013-05-09 12:02:00,
2013-05-09 08:07:00,62.6,59.8,30.11,West,270,1.6,1.6,90,0.00,,,0.00,WUHU216HW,2013-05-09 12:07:00,
2013-05-09 08:12:00,62.8,60.2,30.11,West,270,1.1,1.6,91,0.00,,,0.00,WUHU216HW,2013-05-09 12:12:00,
2013-05-09 08:17:00,63.2,60.3,30.11,West,270,1.8,2.9,90,0.00,,,0.00,WUHU216HW,2013-05-09 12:17:00,
2013-05-09 08:22:00,63.9,61.0,30.11,West,270,0.4,2.9,90,0.00,,,0.00,WUHU216HW,2013-05-09 12:22:00,
2013-05-09 08:27:00,64.4,61.6,30.11,WSW,248,4.0,4.0,90,0.00,,,0.00,WUHU216HW,2013-05-09 12:27:00,
2013-05-09 08:32:00,65.0,62.0,30.11,West,270,2.5,4.7,90,0.00,,,0.00,WUHU216HW,2013-05-09 12:32:00,
2013-05-09 08:37:00,65.3,62.0,30.12,WNW,293,0.4,4.7,89,0.00,,,0.00,WUHU216HW,2013-05-09 12:37:00,
2013-05-09 08:42:00,65.5,61.8,30.12,WNW,293,0.2,4.7,88,0.00,,,0.00,WUHU216HW,2013-05-09 12:42:00,
2013-05-09 08:47:00,65.9,62.6,30.12,West,270,0.0,3.1,89,0.00,,,0.00,WUHU216HW,2013-05-09 12:47:00,
2013-05-09 08:52:00,66.2,62.8,30.12,West,270,1.3,2.7,89,0.00,,,0.00,WUHU216HW,2013-05-09 12:52:00,
2013-05-09 08:57:00,66.6,62.9,30.11,West,270,1.6,2.7,88,0.00,,,0.00,WUHU216HW,2013-05-09 12:57:00,
2013-05-09 09:02:00,67.0,62.9,30.11,WSW,248,1.8,3.8,87,0.00,,,0.00,WUHU216HW,2013-05-09 13:02:00,
2013-05-09 09:07:00,67.3,63.3,30.12,West,270,2.9,3.8,87,0.00,,,0.00,WUHU216HW,2013-05-09 13:07:00,
2013-05-09 09:12:00,67.7,63.4,30.12,WSW,248,3.1,3.1,86,0.00,,,0.00,WUHU216HW,2013-05-09 13:12:00,
2013-05-09 09:17:00,68.2,63.9,30.12,SSW,203,2.2,3.1,86,0.00,,,0.00,WUHU216HW,2013-05-09 13:17:00,
2013-05-09 09:22:00,68.8,64.1,30.12,West,270,0.4,2.2,85,0.00,,,0.00,WUHU216HW,2013-05-09 13:22:00,
2013-05-09 09:27:00,69.1,64.1,30.12,WSW,248,2.2,3.1,84,0.00,,,0.00,WUHU216HW,2013-05-09 13:27:00,
2013-05-09 09:32:00,69.5,63.7,30.12,WSW,248,2.5,3.1,82,0.00,,,0.00,WUHU216HW,2013-05-09 13:32:00,
2013-05-09 09:37:00,70.2,64.5,30.12,WSW,248,1.6,2.5,82,0.00,,,0.00,WUHU216HW,2013-05-09 13:37:00,
2013-05-09 09:42:00,70.7,65.0,30.12,North,0,1.1,1.6,82,0.00,,,0.00,WUHU216HW,2013-05-09 13:42:00,
2013-05-09 09:47:00,71.1,64.6,30.12,NNW,338,0.0,2.2,80,0.00,,,0.00,WUHU216HW,2013-05-09 13:47:00,
2013-05-09 09:52:00,72.0,65.2,30.12,WSW,248,1.8,2.2,79,0.00,,,0.00,WUHU216HW,2013-05-09 13:52:00,
2013-05-09 09:57:00,72.9,66.1,30.12,NW,315,3.1,3.1,79,0.00,,,0.00,WUHU216HW,2013-05-09 13:57:00,
2013-05-09 10:02:00,73.1,65.9,30.12,West,270,2.0,3.1,78,0.00,,,0.00,WUHU216HW,2013-05-09 14:02:00,
2013-05-09 10:07:00,73.8,65.4,30.12,West,270,2.2,3.1,75,0.00,,,0.00,WUHU216HW,2013-05-09 14:07:00,
2013-05-09 10:12:00,75.1,66.3,30.12,NNW,338,0.2,3.8,74,0.00,,,0.00,WUHU216HW,2013-05-09 14:12:00,
2013-05-09 10:17:00,76.1,65.7,30.12,WNW,293,2.0,3.8,70,0.00,,,0.00,WUHU216HW,2013-05-09 14:17:00,
2013-05-09 10:22:00,77.0,66.6,30.12,WSW,248,3.4,4.0,70,0.00,,,0.00,WUHU216HW,2013-05-09 14:22:00,
2013-05-09 10:27:00,77.6,67.1,30.12,WSW,248,4.0,4.0,70,0.00,,,0.00,WUHU216HW,2013-05-09 14:27:00,
2013-05-09 10:32:00,77.8,66.3,30.12,WSW,248,2.7,4.0,68,0.00,,,0.00,WUHU216HW,2013-05-09 14:32:00,
2013-05-09 10:37:00,77.6,65.4,30.12,SW,225,2.7,4.7,66,0.00,,,0.00,WUHU216HW,2013-05-09 14:37:00,
2013-05-09 10:42:00,78.1,66.2,30.12,West,270,0.2,4.7,67,0.00,,,0.00,WUHU216HW,2013-05-09 14:42:00,
2013-05-09 10:47:00,78.7,66.3,30.12,WSW,248,1.6,4.0,66,0.00,,,0.00,WUHU216HW,2013-05-09 14:47:00,
2013-05-09 10:52:00,78.8,64.8,30.12,SW,225,2.0,5.1,62,0.00,,,0.00,WUHU216HW,2013-05-09 14:52:00,
2013-05-09 10:57:00,79.4,65.7,30.12,WSW,248,3.8,5.1,63,0.00,,,0.00,WUHU216HW,2013-05-09 14:57:00,
2013-05-09 11:02:00,79.9,65.4,30.12,West,270,4.9,4.9,61,0.00,,,0.00,WUHU216HW,2013-05-09 15:02:00,
2013-05-09 11:07:00,80.3,64.2,30.12,NW,315,1.6,4.9,58,0.00,,,0.00,WUHU216HW,2013-05-09 15:07:00,
2013-05-09 11:12:00,80.3,63.1,30.12,SSE,158,0.9,5.4,56,0.00,,,0.00,WUHU216HW,2013-05-09 15:12:00,
2013-05-09 11:17:00,81.2,65.0,30.13,NNW,338,1.1,5.4,58,0.00,,,0.00,WUHU216HW,2013-05-09 15:17:00,
2013-05-09 11:22:00,82.1,65.8,30.12,WSW,248,0.9,2.5,58,0.00,,,0.00,WUHU216HW,2013-05-09 15:22:00,
2013-05-09 11:27:00,83.0,65.6,30.12,WNW,293,4.3,4.3,56,0.00,,,0.00,WUHU216HW,2013-05-09 15:27:00,
2013-05-09 11:32:00,83.2,65.3,30.12,WSW,248,1.8,4.3,55,0.00,,,0.00,WUHU216HW,2013-05-09 15:32:00,
2013-05-09 11:37:00,83.5,65.6,30.12,WSW,248,4.0,4.0,55,0.00,,,0.00,WUHU216HW,2013-05-09 15:37:00,
2013-05-09 11:42:00,83.9,65.4,30.12,North,0,1.8,4.0,54,0.00,,,0.00,WUHU216HW,2013-05-09 15:42:00,
2013-05-09 11:47:00,85.0,64.9,30.12,SSE,158,0.4,2.5,51,0.00,,,0.00,WUHU216HW,2013-05-09 15:47:00,
2013-05-09 11:52:00,85.1,66.1,30.12,NE,45,0.7,2.7,53,0.00,,,0.00,WUHU216HW,2013-05-09 15:52:00,
2013-05-09 11:57:00,85.0,65.4,30.12,West,270,3.1,3.1,52,0.00,,,0.00,WUHU216HW,2013-05-09 15:57:00,
2013-05-09 12:02:00,85.1,65.6,30.12,SSE,158,0.4,3.1,52,0.00,,,0.00,WUHU216HW,2013-05-09 16:02:00,
2013-05-09 12:07:00,84.6,65.1,30.12,WSW,248,0.4,2.0,52,0.00,,,0.00,WUHU216HW,2013-05-09 16:07:00,
2013-05-09 12:12:00,84.8,62.3,30.12,WSW,248,4.0,4.0,47,0.00,,,0.00,WUHU216HW,2013-05-09 16:12:00,
2013-05-09 12:17:00,85.0,63.7,30.12,West,270,2.7,4.5,49,0.00,,,0.00,WUHU216HW,2013-05-09 16:17:00,
2013-05-09 12:22:00,85.0,64.4,30.12,WSW,248,4.9,4.9,50,0.00,,,0.00,WUHU216HW,2013-05-09 16:22:00,
2013-05-09 12:27:00,85.0,62.5,30.12,SSW,203,1.1,4.9,47,0.00,,,0.00,WUHU216HW,2013-05-09 16:27:00,
2013-05-09 12:32:00,84.1,61.7,30.12,South,180,2.0,3.4,47,0.00,,,0.00,WUHU216HW,2013-05-09 16:32:00,
2013-05-09 12:37:00,84.1,62.9,30.12,SSW,203,1.3,3.4,49,0.00,,,0.00,WUHU216HW,2013-05-09 16:37:00,
2013-05-09 12:42:00,84.4,62.0,30.12,NE,45,2.2,5.8,47,0.00,,,0.00,WUHU216HW,2013-05-09 16:42:00,
2013-05-09 12:47:00,84.1,61.7,30.12,WSW,248,1.1,5.8,47,0.00,,,0.00,WUHU216HW,2013-05-09 16:47:00,
2013-05-09 12:52:00,83.7,62.6,30.12,East,90,0.9,2.5,49,0.00,,,0.00,WUHU216HW,2013-05-09 16:52:00,
2013-05-09 12:57:00,84.8,63.5,30.12,SW,225,2.5,3.4,49,0.00,,,0.00,WUHU216HW,2013-05-09 16:57:00,
2013-05-09 13:02:00,85.9,63.9,30.11,West,270,2.5,3.4,48,0.00,,,0.00,WUHU216HW,2013-05-09 17:02:00,
2013-05-09 13:07:00,86.8,63.5,30.11,WSW,248,2.5,3.6,46,0.00,,,0.00,WUHU216HW,2013-05-09 17:07:00,
2013-05-09 13:12:00,87.5,64.7,30.11,SSE,158,0.4,4.0,47,0.00,,,0.00,WUHU216HW,2013-05-09 17:12:00,
2013-05-09 13:17:00,87.8,65.1,30.11,ENE,68,1.8,4.0,47,0.00,,,0.00,WUHU216HW,2013-05-09 17:17:00,
2013-05-09 13:22:00,88.4,64.3,30.11,North,0,2.2,3.4,45,0.00,,,0.00,WUHU216HW,2013-05-09 17:22:00,
2013-05-09 13:27:00,88.9,64.7,30.11,SW,225,2.5,2.5,45,0.00,,,0.00,WUHU216HW,2013-05-09 17:27:00,
2013-05-09 13:32:00,88.4,62.4,30.11,NNE,23,4.0,4.0,42,0.00,,,0.00,WUHU216HW,2013-05-09 17:32:00,
2013-05-09 13:37:00,87.7,61.1,30.11,WSW,248,4.7,4.7,41,0.00,,,0.00,WUHU216HW,2013-05-09 17:37:00,
2013-05-09 13:42:00,87.1,61.9,30.11,WSW,248,3.8,4.7,43,0.00,,,0.00,WUHU216HW,2013-05-09 17:42:00,
2013-05-09 13:47:00,86.9,63.0,30.11,WNW,293,1.8,4.7,45,0.00,,,0.00,WUHU216HW,2013-05-09 17:47:00,
2013-05-09 13:52:00,86.9,63.0,30.11,WSW,248,1.3,1.8,45,0.00,,,0.00,WUHU216HW,2013-05-09 17:52:00,
2013-05-09 13:57:00,87.7,62.4,30.11,NE,45,2.5,2.5,43,0.00,,,0.00,WUHU216HW,2013-05-09 17:57:00,
2013-05-09 14:02:00,88.0,61.5,30.11,ENE,68,2.0,3.8,41,0.00,,,0.00,WUHU216HW,2013-05-09 18:02:00,
2013-05-09 14:07:00,87.1,61.9,30.11,NNW,338,1.1,4.0,43,0.00,,,0.00,WUHU216HW,2013-05-09 18:07:00,
2013-05-09 14:12:00,86.0,62.2,30.11,NNW,338,1.8,4.0,45,0.00,,,0.00,WUHU216HW,2013-05-09 18:12:00,
2013-05-09 14:17:00,85.3,62.2,30.11,WSW,248,0.7,3.1,46,0.00,,,0.00,WUHU216HW,2013-05-09 18:17:00,
2013-05-09 14:22:00,85.0,61.2,30.11,NNW,338,0.7,3.1,45,0.00,,,0.00,WUHU216HW,2013-05-09 18:22:00,
2013-05-09 14:27:00,85.1,62.6,30.10,SW,225,1.3,3.1,47,0.00,,,0.00,WUHU216HW,2013-05-09 18:27:00,
2013-05-09 14:32:00,86.2,63.6,30.10,SW,225,2.5,3.8,47,0.00,,,0.00,WUHU216HW,2013-05-09 18:32:00,
2013-05-09 14:37:00,86.6,62.6,30.10,WSW,248,2.2,3.8,45,0.00,,,0.00,WUHU216HW,2013-05-09 18:37:00,
2013-05-09 14:42:00,86.6,62.6,30.10,WSW,248,3.4,3.8,45,0.00,,,0.00,WUHU216HW,2013-05-09 18:42:00,
2013-05-09 14:47:00,85.5,59.2,30.10,SW,225,2.0,3.6,41,0.00,,,0.00,WUHU216HW,2013-05-09 18:47:00,
2013-05-09 14:52:00,85.9,61.4,30.09,West,270,1.8,3.6,44,0.00,,,0.00,WUHU216HW,2013-05-09 18:52:00,
2013-05-09 14:57:00,86.8,61.6,30.09,SE,135,0.9,4.5,43,0.00,,,0.00,WUHU216HW,2013-05-09 18:57:00,
2013-05-09 15:02:00,86.4,61.3,30.09,West,270,3.4,4.5,43,0.00,,,0.00,WUHU216HW,2013-05-09 19:02:00,
2013-05-09 15:07:00,86.9,62.4,30.09,West,270,5.1,5.1,44,0.00,,,0.00,WUHU216HW,2013-05-09 19:07:00,
2013-05-09 15:12:00,86.9,61.1,30.08,WSW,248,2.2,5.1,42,0.00,,,0.00,WUHU216HW,2013-05-09 19:12:00,
2013-05-09 15:17:00,86.8,60.9,30.08,West,270,4.0,4.3,42,0.00,,,0.00,WUHU216HW,2013-05-09 19:17:00,
2013-05-09 15:22:00,86.9,61.7,30.08,West,270,2.2,4.3,43,0.00,,,0.00,WUHU216HW,2013-05-09 19:22:00,
2013-05-09 15:27:00,87.1,61.9,30.08,NNW,338,1.8,5.4,43,0.00,,,0.00,WUHU216HW,2013-05-09 19:27:00,
2013-05-09 15:32:00,87.7,62.4,30.08,North,0,2.2,5.4,43,0.00,,,0.00,WUHU216HW,2013-05-09 19:32:00,
2013-05-09 15:37:00,87.7,62.4,30.08,WSW,248,0.4,2.2,43,0.00,,,0.00,WUHU216HW,2013-05-09 19:37:00,
2013-05-09 15:43:00,87.7,62.4,30.07,NNW,338,1.8,2.2,43,0.00,,,0.00,WUHU216HW,2013-05-09 19:43:00,
2013-05-09 15:48:00,88.0,60.9,30.07,WSW,248,1.6,4.5,40,0.00,,,0.00,WUHU216HW,2013-05-09 19:48:00,
2013-05-09 15:53:00,88.0,62.1,30.07,NNW,338,1.1,4.7,42,0.00,,,0.00,WUHU216HW,2013-05-09 19:53:00,
2013-05-09 15:58:00,87.8,61.3,30.08,ENE,68,2.5,4.7,41,0.00,,,0.00,WUHU216HW,2013-05-09 19:58:00,
2013-05-09 16:03:00,87.1,61.3,30.07,NNW,338,0.0,3.4,42,0.00,,,0.00,WUHU216HW,2013-05-09 20:03:00,
2013-05-09 16:08:00,87.1,61.3,30.07,NW,315,1.1,2.5,42,0.00,,,0.00,WUHU216HW,2013-05-09 20:08:00,
2013-05-09 16:13:00,87.3,61.5,30.07,ENE,68,1.3,3.6,42,0.00,,,0.00,WUHU216HW,2013-05-09 20:13:00,
2013-05-09 16:18:00,87.3,60.9,30.07,WSW,248,2.0,3.6,41,0.00,,,0.00,WUHU216HW,2013-05-09 20:18:00,
2013-05-09 16:23:00,87.1,61.3,30.07,WSW,248,5.4,5.4,42,0.00,,,0.00,WUHU216HW,2013-05-09 20:23:00,
2013-05-09 16:28:00,86.9,61.1,30.07,WNW,293,0.7,5.4,42,0.00,,,0.00,WUHU216HW,2013-05-09 20:28:00,
2013-05-09 16:33:00,86.8,60.9,30.07,West,270,1.6,3.4,42,0.00,,,0.00,WUHU216HW,2013-05-09 20:33:00,
2013-05-09 16:38:00,86.0,60.3,30.07,West,270,2.2,3.4,42,0.00,,,0.00,WUHU216HW,2013-05-09 20:38:00,
2013-05-09 16:43:00,85.9,60.1,30.07,SSW,203,2.5,3.4,42,0.00,,,0.00,WUHU216HW,2013-05-09 20:43:00,
2013-05-09 16:48:00,85.5,59.2,30.06,SSW,203,0.9,3.4,41,0.00,,,0.00,WUHU216HW,2013-05-09 20:48:00,
2013-05-09 16:53:00,85.5,59.2,30.06,NW,315,2.0,2.0,41,0.00,,,0.00,WUHU216HW,2013-05-09 20:53:00,
2013-05-09 16:58:00,85.3,59.7,30.06,WSW,248,1.8,5.4,42,0.00,,,0.00,WUHU216HW,2013-05-09 20:58:00,
2013-05-09 17:03:00,85.3,59.7,30.06,SW,225,4.3,5.4,42,0.00,,,0.00,WUHU216HW,2013-05-09 21:03:00,
2013-05-09 17:08:00,85.1,58.9,30.06,WSW,248,3.4,4.3,41,0.00,,,0.00,WUHU216HW,2013-05-09 21:08:00,
2013-05-09 17:13:00,84.8,58.5,30.06,WSW,248,2.7,4.3,41,0.00,,,0.00,WUHU216HW,2013-05-09 21:13:00,
2013-05-09 17:18:00,84.6,58.4,30.06,WNW,293,0.7,3.8,41,0.00,,,0.00,WUHU216HW,2013-05-09 21:18:00,
2013-05-09 17:23:00,84.6,59.1,30.06,SW,225,1.8,3.8,42,0.00,,,0.00,WUHU216HW,2013-05-09 21:23:00,
2013-05-09 17:28:00,84.2,58.7,30.06,West,270,2.7,3.8,42,0.00,,,0.00,WUHU216HW,2013-05-09 21:28:00,
2013-05-09 17:33:00,84.2,58.7,30.06,NNE,23,1.8,2.7,42,0.00,,,0.00,WUHU216HW,2013-05-09 21:33:00,
2013-05-09 17:38:00,83.9,57.7,30.06,West,270,2.0,4.0,41,0.00,,,0.00,WUHU216HW,2013-05-09 21:38:00,
2013-05-09 17:43:00,83.9,57.7,30.06,West,270,0.7,4.0,41,0.00,,,0.00,WUHU216HW,2013-05-09 21:43:00,
2013-05-09 17:48:00,83.7,58.1,30.07,WSW,248,4.0,4.0,42,0.00,,,0.00,WUHU216HW,2013-05-09 21:48:00,
2013-05-09 17:53:00,83.5,58.1,30.06,North,0,0.4,4.0,42,0.00,,,0.00,WUHU216HW,2013-05-09 21:53:00,
2013-05-09 17:58:00,83.5,58.7,30.06,NNW,338,0.9,3.6,43,0.00,,,0.00,WUHU216HW,2013-05-09 21:58:00,
2013-05-09 18:03:00,83.3,57.9,30.06,SSW,203,2.5,2.5,42,0.00,,,0.00,WUHU216HW,2013-05-09 22:03:00,
2013-05-09 18:08:00,83.3,58.5,30.06,North,0,0.7,2.5,43,0.00,,,0.00,WUHU216HW,2013-05-09 22:08:00,
2013-05-09 18:13:00,83.2,59.0,30.06,WSW,248,2.9,2.9,44,0.00,,,0.00,WUHU216HW,2013-05-09 22:13:00,
2013-05-09 18:18:00,83.0,58.8,30.06,North,0,1.1,2.9,44,0.00,,,0.00,WUHU216HW,2013-05-09 22:18:00,
2013-05-09 18:23:00,82.8,58.6,30.06,North,0,1.1,1.3,44,0.00,,,0.00,WUHU216HW,2013-05-09 22:23:00,
2013-05-09 18:28:00,82.8,58.6,30.05,NW,315,0.4,1.1,44,0.00,,,0.00,WUHU216HW,2013-05-09 22:28:00,
2013-05-09 18:33:00,82.8,58.6,30.05,NNE,23,1.1,1.3,44,0.00,,,0.00,WUHU216HW,2013-05-09 22:33:00,
2013-05-09 18:38:00,82.6,58.4,30.06,NNW,338,0.4,1.8,44,0.00,,,0.00,WUHU216HW,2013-05-09 22:38:00,
2013-05-09 18:43:00,82.4,58.2,30.05,SW,225,0.4,1.8,44,0.00,,,0.00,WUHU216HW,2013-05-09 22:43:00,
2013-05-09 18:48:00,82.3,58.7,30.05,NNW,338,0.0,2.5,45,0.00,,,0.00,WUHU216HW,2013-05-09 22:48:00,
2013-05-09 18:53:00,82.1,58.5,30.05,NW,315,0.4,2.5,45,0.00,,,0.00,WUHU216HW,2013-05-09 22:53:00,
2013-05-09 18:58:00,81.9,58.4,30.05,West,270,0.0,0.9,45,0.00,,,0.00,WUHU216HW,2013-05-09 22:58:00,
2013-05-09 19:03:00,81.7,58.2,30.05,West,270,0.0,0.4,45,0.00,,,0.00,WUHU216HW,2013-05-09 23:03:00,
2013-05-09 19:08:00,81.4,57.9,30.05,West,270,0.0,0.0,45,0.00,,,0.00,WUHU216HW,2013-05-09 23:08:00,
2013-05-09 19:13:00,81.2,58.3,30.05,West,270,0.0,0.0,46,0.00,,,0.00,WUHU216HW,2013-05-09 23:13:00,
2013-05-09 19:18:00,81.0,58.1,30.05,West,270,0.0,0.0,46,0.00,,,0.00,WUHU216HW,2013-05-09 23:18:00,
2013-05-09 19:23:00,80.8,58.6,30.05,West,270,0.0,0.0,47,0.00,,,0.00,WUHU216HW,2013-05-09 23:23:00,
2013-05-09 19:28:00,80.5,58.3,30.05,West,270,0.0,0.0,47,0.00,,,0.00,WUHU216HW,2013-05-09 23:28:00,
2013-05-09 19:33:00,80.3,58.8,30.06,West,270,0.0,0.0,48,0.00,,,0.00,WUHU216HW,2013-05-09 23:33:00,
2013-05-09 19:38:00,79.9,59.0,30.06,West,270,0.0,0.0,49,0.00,,,0.00,WUHU216HW,2013-05-09 23:38:00,
2013-05-09 19:43:00,79.7,58.9,30.06,West,270,0.0,0.0,49,0.00,,,0.00,WUHU216HW,2013-05-09 23:43:00,
2013-05-09 19:48:00,79.2,59.1,30.06,West,270,0.0,0.0,50,0.00,,,0.00,WUHU216HW,2013-05-09 23:48:00,
2013-05-09 19:53:00,78.8,58.7,30.06,West,270,0.0,0.0,50,0.00,,,0.00,WUHU216HW,2013-05-09 23:53:00,
2013-05-09 19:58:00,78.7,59.1,30.06,West,270,0.0,0.0,51,0.00,,,0.00,WUHU216HW,2013-05-09 23:58:00,
2013-05-09 20:03:00,78.3,59.2,30.07,West,270,0.0,0.0,52,0.00,,,0.00,WUHU216HW,2013-05-10 00:03:00,
2013-05-09 20:08:00,77.9,58.9,30.07,West,270,0.0,0.0,52,0.00,,,0.00,WUHU216HW,2013-05-10 00:08:00,
2013-05-09 20:13:00,77.6,59.0,30.07,West,270,0.0,0.0,53,0.00,,,0.00,WUHU216HW,2013-05-10 00:13:00,
2013-05-09 20:18:00,77.2,59.2,30.07,West,270,0.0,0.0,54,0.00,,,0.00,WUHU216HW,2013-05-10 00:18:00,
2013-05-09 20:23:00,76.7,59.2,30.07,West,270,0.0,0.0,55,0.00,,,0.00,WUHU216HW,2013-05-10 00:23:00,
2013-05-09 20:28:00,76.3,59.4,30.07,West,270,0.0,0.0,56,0.00,,,0.00,WUHU216HW,2013-05-10 00:28:00,
2013-05-09 20:33:00,76.0,59.6,30.07,West,270,0.0,0.0,57,0.00,,,0.00,WUHU216HW,2013-05-10 00:33:00,
2013-05-09 20:38:00,75.6,59.8,30.07,West,270,0.0,0.0,58,0.00,,,0.00,WUHU216HW,2013-05-10 00:38:00,
2013-05-09 20:43:00,75.2,59.9,30.08,West,270,0.0,0.0,59,0.00,,,0.00,WUHU216HW,2013-05-10 00:43:00,
2013-05-09 20:48:00,74.7,59.9,30.08,SSE,158,0.7,0.9,60,0.00,,,0.00,WUHU216HW,2013-05-10 00:48:00,
2013-05-09 20:53:00,74.2,60.3,30.08,SE,135,1.1,1.1,62,0.00,,,0.00,WUHU216HW,2013-05-10 00:53:00,
2013-05-09 20:58:00,73.8,61.8,30.08,SE,135,1.1,1.1,66,0.00,,,0.00,WUHU216HW,2013-05-10 00:58:00,
2013-05-09 21:03:00,73.6,61.6,30.09,SSE,158,0.4,1.1,66,0.00,,,0.00,WUHU216HW,2013-05-10 01:03:00,
2013-05-09 21:08:00,73.6,61.1,30.09,SE,135,0.0,1.1,65,0.00,,,0.00,WUHU216HW,2013-05-10 01:08:00,
2013-05-09 21:13:00,73.6,61.1,30.09,SSE,158,0.4,1.1,65,0.00,,,0.00,WUHU216HW,2013-05-10 01:13:00,
2013-05-09 21:18:00,73.6,61.6,30.09,SSE,158,0.4,0.7,66,0.00,,,0.00,WUHU216HW,2013-05-10 01:18:00,
2013-05-09 21:23:00,73.3,61.2,30.10,SSE,158,0.0,0.4,66,0.00,,,0.00,WUHU216HW,2013-05-10 01:23:00,
2013-05-09 21:28:00,73.1,61.0,30.10,SSE,158,0.0,0.0,66,0.00,,,0.00,WUHU216HW,2013-05-10 01:28:00,
2013-05-09 21:33:00,73.1,61.0,30.10,SSE,158,0.0,0.0,66,0.00,,,0.00,WUHU216HW,2013-05-10 01:33:00,
2013-05-09 21:38:00,72.9,60.8,30.11,WSW,248,0.9,0.9,66,0.00,,,0.00,WUHU216HW,2013-05-10 01:38:00,
2013-05-09 21:43:00,72.7,61.1,30.11,WSW,248,0.0,0.9,67,0.00,,,0.00,WUHU216HW,2013-05-10 01:43:00,
2013-05-09 21:48:00,72.4,61.2,30.11,WSW,248,0.0,0.7,68,0.00,,,0.00,WUHU216HW,2013-05-10 01:48:00,
2013-05-09 21:53:00,72.0,60.8,30.11,WSW,248,0.0,0.0,68,0.00,,,0.00,WUHU216HW,2013-05-10 01:53:00,
2013-05-09 21:58:00,71.6,60.5,30.11,WSW,248,0.0,0.0,68,0.00,,,0.00,WUHU216HW,2013-05-10 01:58:00,
2013-05-09 22:03:00,71.5,60.3,30.11,WSW,248,0.0,0.0,68,0.00,,,0.00,WUHU216HW,2013-05-10 02:03:00,
2013-05-09 22:08:00,71.3,60.6,30.11,SW,225,0.0,0.0,69,0.00,,,0.00,WUHU216HW,2013-05-10 02:08:00,
2013-05-09 22:13:00,71.1,60.8,30.11,SW,225,0.0,0.0,70,0.00,,,0.00,WUHU216HW,2013-05-10 02:13:00,
2013-05-09 22:18:00,70.9,60.7,30.11,SW,225,0.4,0.4,70,0.00,,,0.00,WUHU216HW,2013-05-10 02:18:00,
2013-05-09 22:23:00,70.6,60.3,30.11,SW,225,0.0,0.4,70,0.00,,,0.00,WUHU216HW,2013-05-10 02:23:00,
2013-05-09 22:28:00,70.2,60.3,30.11,SW,225,0.0,0.0,71,0.00,,,0.00,WUHU216HW,2013-05-10 02:28:00,
2013-05-09 22:33:00,70.2,60.7,30.11,SW,225,0.0,0.0,72,0.00,,,0.00,WUHU216HW,2013-05-10 02:33:00,
2013-05-09 22:38:00,70.0,60.5,30.11,SW,225,0.0,0.0,72,0.00,,,0.00,WUHU216HW,2013-05-10 02:38:00,
2013-05-09 22:43:00,69.8,60.3,30.11,SW,225,0.0,0.0,72,0.00,,,0.00,WUHU216HW,2013-05-10 02:43:00,
2013-05-09 22:48:00,69.7,60.6,30.11,SW,225,0.0,0.0,73,0.00,,,0.00,WUHU216HW,2013-05-10 02:48:00,
2013-05-09 22:53:00,69.5,60.8,30.11,SW,225,0.0,0.0,74,0.00,,,0.00,WUHU216HW,2013-05-10 02:53:00,
2013-05-09 22:58:00,69.3,60.6,30.11,SW,225,0.0,0.0,74,0.00,,,0.00,WUHU216HW,2013-05-10 02:58:00,
2013-05-09 23:03:00,69.1,60.9,30.11,WSW,248,0.0,0.0,75,0.00,,,0.00,WUHU216HW,2013-05-10 03:03:00,
2013-05-09 23:08:00,68.9,60.7,30.11,SW,225,0.0,0.0,75,0.00,,,0.00,WUHU216HW,2013-05-10 03:08:00,
2013-05-09 23:13:00,68.8,60.5,30.11,SW,225,0.0,0.0,75,0.00,,,0.00,WUHU216HW,2013-05-10 03:13:00,
2013-05-09 23:18:00,68.8,60.5,30.11,North,0,0.0,0.0,75,0.00,,,0.00,WUHU216HW,2013-05-10 03:18:00,
2013-05-09 23:23:00,68.8,60.5,30.12,North,0,0.0,0.0,75,0.00,,,0.00,WUHU216HW,2013-05-10 03:23:00,
2013-05-09 23:28:00,68.6,60.3,30.12,North,0,0.0,0.0,75,0.00,,,0.00,WUHU216HW,2013-05-10 03:28:00,
2013-05-09 23:33:00,68.4,59.8,30.12,North,0,0.0,0.0,74,0.00,,,0.00,WUHU216HW,2013-05-10 03:33:00,
2013-05-09 23:38:00,68.2,60.0,30.12,North,0,0.0,0.0,75,0.00,,,0.00,WUHU216HW,2013-05-10 03:38:00,
2013-05-09 23:43:00,68.0,59.9,30.12,NNE,23,0.0,0.0,75,0.00,,,0.00,WUHU216HW,2013-05-10 03:43:00,
2013-05-09 23:48:00,68.0,59.9,30.12,NNE,23,0.0,0.0,75,0.00,,,0.00,WUHU216HW,2013-05-10 03:48:00,
2013-05-09 23:53:00,68.0,59.5,30.12,NNE,23,0.0,0.0,74,0.00,,,0.00,WUHU216HW,2013-05-10 03:53:00,
2013-05-09 23:58:00,68.0,59.5,30.12,NNE,23,0.0,0.0,74,0.00,,,0.00,WUHU216HW,2013-05-10 03:58:00,